sensor_id;sensor_type;location;lat;lon;timestamp;P1;durP1;ratioP1;P2;durP2;ratioP2
13683;SDS011;6914;53.552;9.908;2023-05-10T00:01:54;4.73;;;4.27;;
13683;SDS011;6914;53.552;9.908;2023-05-10T00:04:23;7.10;;;4.20;;
13683;SDS011;6914;53.552;9.908;2023-05-10T00:06:53;10.30;;;4.87;;
13683;SDS011;6914;53.552;9.908;2023-05-10T00:09:20;4.93;;;4.63;;
13683;SDS011;6914;53.552;9.908;2023-05-10T00:11:47;5.17;;;4.77;;
13683;SDS011;6914;53.552;9.908;2023-05-10T00:14:13;7.70;;;4.67;;
13683;SDS011;6914;53.552;9.908;2023-05-10T00:16:40;4.10;;;3.90;;
13683;SDS011;6914;53.552;9.908;2023-05-10T00:19:07;13.63;;;4.73;;
13683;SDS011;6914;53.552;9.908;2023-05-10T00:21:34;10.70;;;4.50;;
13683;SDS011;6914;53.552;9.908;2023-05-10T00:24:03;7.20;;;5.60;;
13683;SDS011;6914;53.552;9.908;2023-05-10T00:26:31;5.10;;;4.77;;
13683;SDS011;6914;53.552;9.908;2023-05-10T00:28:58;5.40;;;4.70;;
13683;SDS011;6914;53.552;9.908;2023-05-10T00:31:27;12.57;;;4.80;;
13683;SDS011;6914;53.552;9.908;2023-05-10T00:33:54;5.97;;;5.57;;
13683;SDS011;6914;53.552;9.908;2023-05-10T00:36:24;5.47;;;4.40;;
13683;SDS011;6914;53.552;9.908;2023-05-10T00:38:52;6.80;;;5.10;;
13683;SDS011;6914;53.552;9.908;2023-05-10T00:41:20;5.00;;;4.57;;
13683;SDS011;6914;53.552;9.908;2023-05-10T00:43:47;6.27;;;5.10;;
13683;SDS011;6914;53.552;9.908;2023-05-10T00:46:14;11.60;;;5.83;;
13683;SDS011;6914;53.552;9.908;2023-05-10T00:48:44;5.80;;;5.20;;
13683;SDS011;6914;53.552;9.908;2023-05-10T00:51:11;6.63;;;5.43;;
13683;SDS011;6914;53.552;9.908;2023-05-10T00:53:38;5.13;;;4.67;;
13683;SDS011;6914;53.552;9.908;2023-05-10T00:56:05;6.57;;;5.20;;
13683;SDS011;6914;53.552;9.908;2023-05-10T00:58:33;6.50;;;6.00;;
13683;SDS011;6914;53.552;9.908;2023-05-10T01:01:00;5.50;;;5.20;;
13683;SDS011;6914;53.552;9.908;2023-05-10T01:03:30;11.10;;;4.90;;
13683;SDS011;6914;53.552;9.908;2023-05-10T01:05:58;11.20;;;4.53;;
13683;SDS011;6914;53.552;9.908;2023-05-10T01:08:29;4.97;;;4.67;;
13683;SDS011;6914;53.552;9.908;2023-05-10T01:10:56;6.33;;;4.97;;
13683;SDS011;6914;53.552;9.908;2023-05-10T01:13:27;4.97;;;4.67;;
13683;SDS011;6914;53.552;9.908;2023-05-10T01:16:00;15.23;;;5.57;;
13683;SDS011;6914;53.552;9.908;2023-05-10T01:18:29;7.03;;;5.47;;
13683;SDS011;6914;53.552;9.908;2023-05-10T01:21:01;7.70;;;6.23;;
13683;SDS011;6914;53.552;9.908;2023-05-10T01:23:43;6.23;;;5.63;;
13683;SDS011;6914;53.552;9.908;2023-05-10T01:26:28;5.77;;;4.90;;
13683;SDS011;6914;53.552;9.908;2023-05-10T01:29:29;14.00;;;5.00;;
13683;SDS011;6914;53.552;9.908;2023-05-10T01:32:21;5.17;;;4.77;;
13683;SDS011;6914;53.552;9.908;2023-05-10T01:34:58;6.20;;;4.83;;
13683;SDS011;6914;53.552;9.908;2023-05-10T01:37:30;5.27;;;4.97;;
13683;SDS011;6914;53.552;9.908;2023-05-10T01:40:06;7.93;;;5.50;;
13683;SDS011;6914;53.552;9.908;2023-05-10T01:42:40;6.43;;;5.63;;
13683;SDS011;6914;53.552;9.908;2023-05-10T01:45:13;5.50;;;5.20;;
13683;SDS011;6914;53.552;9.908;2023-05-10T01:47:48;6.00;;;5.70;;
13683;SDS011;6914;53.552;9.908;2023-05-10T01:50:22;8.57;;;5.67;;
13683;SDS011;6914;53.552;9.908;2023-05-10T01:52:54;12.50;;;5.57;;
13683;SDS011;6914;53.552;9.908;2023-05-10T01:55:25;8.90;;;5.63;;
13683;SDS011;6914;53.552;9.908;2023-05-10T01:57:56;5.73;;;5.10;;
13683;SDS011;6914;53.552;9.908;2023-05-10T02:00:28;18.53;;;5.50;;
13683;SDS011;6914;53.552;9.908;2023-05-10T02:02:57;6.80;;;5.70;;
13683;SDS011;6914;53.552;9.908;2023-05-10T02:05:28;6.10;;;5.23;;
13683;SDS011;6914;53.552;9.908;2023-05-10T02:07:57;6.43;;;5.80;;
13683;SDS011;6914;53.552;9.908;2023-05-10T02:10:29;5.97;;;5.37;;
13683;SDS011;6914;53.552;9.908;2023-05-10T02:12:58;6.27;;;5.70;;
13683;SDS011;6914;53.552;9.908;2023-05-10T02:15:26;7.73;;;5.73;;
13683;SDS011;6914;53.552;9.908;2023-05-10T02:17:54;14.13;;;4.23;;
13683;SDS011;6914;53.552;9.908;2023-05-10T02:20:23;6.27;;;5.87;;
13683;SDS011;6914;53.552;9.908;2023-05-10T02:22:52;8.53;;;5.13;;
13683;SDS011;6914;53.552;9.908;2023-05-10T02:25:23;5.80;;;5.27;;
13683;SDS011;6914;53.552;9.908;2023-05-10T02:27:50;5.90;;;5.37;;
13683;SDS011;6914;53.552;9.908;2023-05-10T02:30:20;7.40;;;5.93;;
13683;SDS011;6914;53.552;9.908;2023-05-10T02:32:47;6.33;;;5.90;;
13683;SDS011;6914;53.552;9.908;2023-05-10T02:35:15;20.07;;;6.20;;
13683;SDS011;6914;53.552;9.908;2023-05-10T02:37:44;17.73;;;5.37;;
13683;SDS011;6914;53.552;9.908;2023-05-10T02:40:13;6.67;;;5.87;;
13683;SDS011;6914;53.552;9.908;2023-05-10T02:42:42;6.00;;;5.43;;
13683;SDS011;6914;53.552;9.908;2023-05-10T02:45:12;5.93;;;5.33;;
13683;SDS011;6914;53.552;9.908;2023-05-10T02:47:43;5.87;;;5.47;;
13683;SDS011;6914;53.552;9.908;2023-05-10T02:50:09;14.13;;;6.27;;
13683;SDS011;6914;53.552;9.908;2023-05-10T02:52:38;11.00;;;5.70;;
13683;SDS011;6914;53.552;9.908;2023-05-10T02:55:11;5.67;;;5.27;;
13683;SDS011;6914;53.552;9.908;2023-05-10T02:57:42;6.60;;;5.93;;
13683;SDS011;6914;53.552;9.908;2023-05-10T03:00:15;5.50;;;5.20;;
13683;SDS011;6914;53.552;9.908;2023-05-10T03:02:42;7.93;;;5.60;;
13683;SDS011;6914;53.552;9.908;2023-05-10T03:05:08;12.77;;;5.77;;
13683;SDS011;6914;53.552;9.908;2023-05-10T03:07:35;6.80;;;6.30;;
13683;SDS011;6914;53.552;9.908;2023-05-10T03:10:04;10.00;;;6.03;;
13683;SDS011;6914;53.552;9.908;2023-05-10T03:12:44;6.60;;;5.57;;
13683;SDS011;6914;53.552;9.908;2023-05-10T03:15:19;12.13;;;5.73;;
13683;SDS011;6914;53.552;9.908;2023-05-10T03:18:00;6.10;;;5.67;;
13683;SDS011;6914;53.552;9.908;2023-05-10T03:20:31;7.37;;;6.70;;
13683;SDS011;6914;53.552;9.908;2023-05-10T03:23:02;6.13;;;5.63;;
13683;SDS011;6914;53.552;9.908;2023-05-10T03:25:33;7.30;;;5.77;;
13683;SDS011;6914;53.552;9.908;2023-05-10T03:28:05;8.37;;;5.27;;
13683;SDS011;6914;53.552;9.908;2023-05-10T03:30:32;12.23;;;5.70;;
13683;SDS011;6914;53.552;9.908;2023-05-10T03:33:04;6.23;;;5.27;;
13683;SDS011;6914;53.552;9.908;2023-05-10T03:35:31;5.33;;;5.00;;
13683;SDS011;6914;53.552;9.908;2023-05-10T03:37:58;8.83;;;5.70;;
13683;SDS011;6914;53.552;9.908;2023-05-10T03:40:30;9.23;;;6.73;;
13683;SDS011;6914;53.552;9.908;2023-05-10T03:42:57;12.23;;;6.30;;
13683;SDS011;6914;53.552;9.908;2023-05-10T03:45:25;4.70;;;4.30;;
13683;SDS011;6914;53.552;9.908;2023-05-10T03:47:52;7.57;;;5.63;;
13683;SDS011;6914;53.552;9.908;2023-05-10T03:50:19;7.23;;;5.53;;
13683;SDS011;6914;53.552;9.908;2023-05-10T03:52:46;7.03;;;6.53;;
13683;SDS011;6914;53.552;9.908;2023-05-10T03:55:13;6.30;;;5.90;;
13683;SDS011;6914;53.552;9.908;2023-05-10T03:57:41;6.70;;;6.20;;
13683;SDS011;6914;53.552;9.908;2023-05-10T04:00:09;7.10;;;6.27;;
13683;SDS011;6914;53.552;9.908;2023-05-10T04:02:38;9.27;;;5.83;;
13683;SDS011;6914;53.552;9.908;2023-05-10T04:05:05;14.33;;;5.83;;
13683;SDS011;6914;53.552;9.908;2023-05-10T04:07:32;7.67;;;4.83;;
13683;SDS011;6914;53.552;9.908;2023-05-10T04:09:59;7.27;;;6.07;;
13683;SDS011;6914;53.552;9.908;2023-05-10T04:12:26;5.80;;;5.40;;
13683;SDS011;6914;53.552;9.908;2023-05-10T04:14:53;7.80;;;5.73;;
13683;SDS011;6914;53.552;9.908;2023-05-10T04:17:20;9.37;;;6.67;;
13683;SDS011;6914;53.552;9.908;2023-05-10T04:19:48;6.70;;;6.03;;
13683;SDS011;6914;53.552;9.908;2023-05-10T04:22:18;9.03;;;5.50;;
13683;SDS011;6914;53.552;9.908;2023-05-10T04:24:45;9.27;;;5.83;;
13683;SDS011;6914;53.552;9.908;2023-05-10T04:27:11;13.00;;;5.83;;
13683;SDS011;6914;53.552;9.908;2023-05-10T04:29:38;6.53;;;6.03;;
13683;SDS011;6914;53.552;9.908;2023-05-10T04:32:05;6.43;;;5.83;;
13683;SDS011;6914;53.552;9.908;2023-05-10T04:34:34;9.47;;;5.50;;
13683;SDS011;6914;53.552;9.908;2023-05-10T04:37:02;9.03;;;6.33;;
13683;SDS011;6914;53.552;9.908;2023-05-10T04:39:32;6.43;;;5.87;;
13683;SDS011;6914;53.552;9.908;2023-05-10T04:42:00;6.97;;;6.27;;
13683;SDS011;6914;53.552;9.908;2023-05-10T04:44:32;10.70;;;6.40;;
13683;SDS011;6914;53.552;9.908;2023-05-10T04:46:59;5.67;;;5.27;;
13683;SDS011;6914;53.552;9.908;2023-05-10T04:49:27;7.40;;;5.93;;
13683;SDS011;6914;53.552;9.908;2023-05-10T04:51:54;13.03;;;6.20;;
13683;SDS011;6914;53.552;9.908;2023-05-10T04:54:22;6.40;;;5.90;;
13683;SDS011;6914;53.552;9.908;2023-05-10T04:56:49;7.17;;;6.47;;
13683;SDS011;6914;53.552;9.908;2023-05-10T04:59:16;9.70;;;5.90;;
13683;SDS011;6914;53.552;9.908;2023-05-10T05:01:43;7.53;;;5.53;;
13683;SDS011;6914;53.552;9.908;2023-05-10T05:04:10;6.40;;;5.80;;
13683;SDS011;6914;53.552;9.908;2023-05-10T05:06:37;5.73;;;5.23;;
13683;SDS011;6914;53.552;9.908;2023-05-10T05:09:03;6.60;;;5.80;;
13683;SDS011;6914;53.552;9.908;2023-05-10T05:11:35;6.10;;;5.60;;
13683;SDS011;6914;53.552;9.908;2023-05-10T05:14:02;6.77;;;6.10;;
13683;SDS011;6914;53.552;9.908;2023-05-10T05:16:31;6.57;;;6.00;;
13683;SDS011;6914;53.552;9.908;2023-05-10T05:18:59;7.40;;;6.07;;
13683;SDS011;6914;53.552;9.908;2023-05-10T05:21:26;6.37;;;5.90;;
13683;SDS011;6914;53.552;9.908;2023-05-10T05:23:53;8.97;;;5.90;;
13683;SDS011;6914;53.552;9.908;2023-05-10T05:26:20;7.30;;;6.40;;
13683;SDS011;6914;53.552;9.908;2023-05-10T05:28:48;7.37;;;6.27;;
13683;SDS011;6914;53.552;9.908;2023-05-10T05:31:18;6.30;;;5.70;;
13683;SDS011;6914;53.552;9.908;2023-05-10T05:33:45;10.60;;;5.63;;
13683;SDS011;6914;53.552;9.908;2023-05-10T05:36:12;7.20;;;6.40;;
13683;SDS011;6914;53.552;9.908;2023-05-10T05:38:39;8.10;;;6.03;;
13683;SDS011;6914;53.552;9.908;2023-05-10T05:41:07;6.90;;;6.20;;
13683;SDS011;6914;53.552;9.908;2023-05-10T05:43:34;8.70;;;6.50;;
13683;SDS011;6914;53.552;9.908;2023-05-10T05:46:03;9.60;;;5.60;;
13683;SDS011;6914;53.552;9.908;2023-05-10T05:48:33;6.63;;;6.00;;
13683;SDS011;6914;53.552;9.908;2023-05-10T05:51:00;6.33;;;5.70;;
13683;SDS011;6914;53.552;9.908;2023-05-10T05:53:26;6.57;;;6.00;;
13683;SDS011;6914;53.552;9.908;2023-05-10T05:55:53;6.50;;;6.00;;
13683;SDS011;6914;53.552;9.908;2023-05-10T05:58:22;9.77;;;5.73;;
13683;SDS011;6914;53.552;9.908;2023-05-10T06:00:49;6.53;;;5.87;;
13683;SDS011;6914;53.552;9.908;2023-05-10T06:03:18;6.67;;;6.10;;
13683;SDS011;6914;53.552;9.908;2023-05-10T06:05:45;11.97;;;5.40;;
13683;SDS011;6914;53.552;9.908;2023-05-10T06:08:13;9.90;;;5.90;;
13683;SDS011;6914;53.552;9.908;2023-05-10T06:10:39;10.60;;;5.50;;
13683;SDS011;6914;53.552;9.908;2023-05-10T06:13:07;10.73;;;5.87;;
13683;SDS011;6914;53.552;9.908;2023-05-10T06:15:33;6.43;;;6.00;;
13683;SDS011;6914;53.552;9.908;2023-05-10T06:18:00;8.83;;;5.70;;
13683;SDS011;6914;53.552;9.908;2023-05-10T06:20:29;8.30;;;5.70;;
13683;SDS011;6914;53.552;9.908;2023-05-10T06:22:57;6.47;;;5.90;;
13683;SDS011;6914;53.552;9.908;2023-05-10T06:25:24;5.97;;;5.57;;
13683;SDS011;6914;53.552;9.908;2023-05-10T06:27:51;13.43;;;5.13;;
13683;SDS011;6914;53.552;9.908;2023-05-10T06:30:22;5.80;;;5.40;;
13683;SDS011;6914;53.552;9.908;2023-05-10T06:32:52;7.67;;;6.30;;
13683;SDS011;6914;53.552;9.908;2023-05-10T06:35:19;6.23;;;5.53;;
13683;SDS011;6914;53.552;9.908;2023-05-10T06:37:48;15.53;;;6.20;;
13683;SDS011;6914;53.552;9.908;2023-05-10T06:40:15;11.10;;;5.23;;
13683;SDS011;6914;53.552;9.908;2023-05-10T06:42:42;8.90;;;5.50;;
13683;SDS011;6914;53.552;9.908;2023-05-10T06:45:11;6.40;;;5.87;;
13683;SDS011;6914;53.552;9.908;2023-05-10T06:47:38;8.23;;;7.20;;
13683;SDS011;6914;53.552;9.908;2023-05-10T06:50:07;10.53;;;6.57;;
13683;SDS011;6914;53.552;9.908;2023-05-10T06:52:37;7.10;;;5.73;;
13683;SDS011;6914;53.552;9.908;2023-05-10T06:55:15;7.03;;;5.87;;
13683;SDS011;6914;53.552;9.908;2023-05-10T06:57:42;7.73;;;5.10;;
13683;SDS011;6914;53.552;9.908;2023-05-10T07:00:09;5.43;;;5.03;;
13683;SDS011;6914;53.552;9.908;2023-05-10T07:02:37;9.80;;;5.80;;
13683;SDS011;6914;53.552;9.908;2023-05-10T07:05:05;15.23;;;6.27;;
13683;SDS011;6914;53.552;9.908;2023-05-10T07:07:35;13.80;;;5.83;;
13683;SDS011;6914;53.552;9.908;2023-05-10T07:10:03;6.53;;;5.83;;
13683;SDS011;6914;53.552;9.908;2023-05-10T07:15:02;5.90;;;5.50;;
13683;SDS011;6914;53.552;9.908;2023-05-10T07:17:30;8.83;;;6.10;;
13683;SDS011;6914;53.552;9.908;2023-05-10T07:19:58;6.67;;;6.03;;
13683;SDS011;6914;53.552;9.908;2023-05-10T07:22:25;5.70;;;5.07;;
13683;SDS011;6914;53.552;9.908;2023-05-10T07:24:52;7.77;;;5.73;;
13683;SDS011;6914;53.552;9.908;2023-05-10T07:27:19;13.53;;;5.70;;
13683;SDS011;6914;53.552;9.908;2023-05-10T07:29:48;7.77;;;5.10;;
13683;SDS011;6914;53.552;9.908;2023-05-10T07:32:14;6.97;;;6.40;;
13683;SDS011;6914;53.552;9.908;2023-05-10T07:34:42;6.70;;;5.97;;
13683;SDS011;6914;53.552;9.908;2023-05-10T07:37:09;7.00;;;5.57;;
13683;SDS011;6914;53.552;9.908;2023-05-10T07:39:40;9.30;;;6.20;;
13683;SDS011;6914;53.552;9.908;2023-05-10T07:42:07;7.17;;;6.47;;
13683;SDS011;6914;53.552;9.908;2023-05-10T07:44:37;6.20;;;5.70;;
13683;SDS011;6914;53.552;9.908;2023-05-10T07:47:05;6.07;;;5.67;;
13683;SDS011;6914;53.552;9.908;2023-05-10T07:49:32;6.10;;;5.63;;
13683;SDS011;6914;53.552;9.908;2023-05-10T07:51:58;5.33;;;4.83;;
13683;SDS011;6914;53.552;9.908;2023-05-10T07:54:26;5.70;;;5.40;;
13683;SDS011;6914;53.552;9.908;2023-05-10T07:56:54;13.20;;;5.73;;
13683;SDS011;6914;53.552;9.908;2023-05-10T07:59:21;8.60;;;6.43;;
13683;SDS011;6914;53.552;9.908;2023-05-10T08:01:48;9.23;;;6.07;;
13683;SDS011;6914;53.552;9.908;2023-05-10T08:04:16;5.83;;;5.47;;
13683;SDS011;6914;53.552;9.908;2023-05-10T08:06:43;8.93;;;5.67;;
13683;SDS011;6914;53.552;9.908;2023-05-10T08:09:10;11.53;;;6.00;;
13683;SDS011;6914;53.552;9.908;2023-05-10T08:11:38;5.80;;;5.10;;
13683;SDS011;6914;53.552;9.908;2023-05-10T08:14:05;6.53;;;5.93;;
13683;SDS011;6914;53.552;9.908;2023-05-10T08:16:32;6.37;;;5.87;;
13683;SDS011;6914;53.552;9.908;2023-05-10T08:18:59;12.70;;;5.70;;
13683;SDS011;6914;53.552;9.908;2023-05-10T08:21:27;7.90;;;5.87;;
13683;SDS011;6914;53.552;9.908;2023-05-10T08:23:56;14.23;;;6.00;;
13683;SDS011;6914;53.552;9.908;2023-05-10T08:26:24;7.73;;;6.00;;
13683;SDS011;6914;53.552;9.908;2023-05-10T08:28:51;9.23;;;6.30;;
13683;SDS011;6914;53.552;9.908;2023-05-10T08:31:18;9.47;;;6.23;;
13683;SDS011;6914;53.552;9.908;2023-05-10T08:33:45;13.70;;;5.63;;
13683;SDS011;6914;53.552;9.908;2023-05-10T08:36:18;5.97;;;5.60;;
13683;SDS011;6914;53.552;9.908;2023-05-10T08:38:49;6.57;;;5.97;;
13683;SDS011;6914;53.552;9.908;2023-05-10T08:41:19;8.50;;;7.70;;
13683;SDS011;6914;53.552;9.908;2023-05-10T08:43:46;16.90;;;5.83;;
13683;SDS011;6914;53.552;9.908;2023-05-10T08:46:14;7.17;;;6.50;;
13683;SDS011;6914;53.552;9.908;2023-05-10T08:48:44;8.10;;;5.87;;
13683;SDS011;6914;53.552;9.908;2023-05-10T08:51:18;6.63;;;6.13;;
13683;SDS011;6914;53.552;9.908;2023-05-10T08:53:50;9.30;;;6.07;;
13683;SDS011;6914;53.552;9.908;2023-05-10T08:56:17;7.23;;;6.40;;
13683;SDS011;6914;53.552;9.908;2023-05-10T08:58:46;7.00;;;6.30;;
13683;SDS011;6914;53.552;9.908;2023-05-10T09:01:15;6.70;;;6.10;;
13683;SDS011;6914;53.552;9.908;2023-05-10T09:03:44;8.60;;;6.30;;
13683;SDS011;6914;53.552;9.908;2023-05-10T09:06:12;9.53;;;6.37;;
13683;SDS011;6914;53.552;9.908;2023-05-10T09:08:42;10.93;;;5.83;;
13683;SDS011;6914;53.552;9.908;2023-05-10T09:11:11;5.70;;;5.30;;
13683;SDS011;6914;53.552;9.908;2023-05-10T09:13:44;6.27;;;5.77;;
13683;SDS011;6914;53.552;9.908;2023-05-10T09:16:12;6.60;;;6.10;;
13683;SDS011;6914;53.552;9.908;2023-05-10T09:18:41;15.73;;;6.97;;
13683;SDS011;6914;53.552;9.908;2023-05-10T09:21:08;7.67;;;6.80;;
13683;SDS011;6914;53.552;9.908;2023-05-10T09:23:36;11.33;;;7.50;;
13683;SDS011;6914;53.552;9.908;2023-05-10T09:26:02;12.80;;;8.63;;
13683;SDS011;6914;53.552;9.908;2023-05-10T09:28:36;10.83;;;7.03;;
13683;SDS011;6914;53.552;9.908;2023-05-10T09:31:16;19.13;;;8.10;;
13683;SDS011;6914;53.552;9.908;2023-05-10T09:33:44;9.80;;;6.60;;
13683;SDS011;6914;53.552;9.908;2023-05-10T09:36:12;13.40;;;7.67;;
13683;SDS011;6914;53.552;9.908;2023-05-10T09:38:45;9.60;;;7.00;;
13683;SDS011;6914;53.552;9.908;2023-05-10T09:41:17;11.50;;;7.10;;
13683;SDS011;6914;53.552;9.908;2023-05-10T09:43:46;14.20;;;7.60;;
13683;SDS011;6914;53.552;9.908;2023-05-10T09:46:16;8.10;;;7.30;;
13683;SDS011;6914;53.552;9.908;2023-05-10T09:48:44;12.37;;;8.00;;
13683;SDS011;6914;53.552;9.908;2023-05-10T09:51:23;8.83;;;8.10;;
13683;SDS011;6914;53.552;9.908;2023-05-10T09:54:08;12.63;;;7.60;;
13683;SDS011;6914;53.552;9.908;2023-05-10T09:56:36;14.33;;;7.60;;
13683;SDS011;6914;53.552;9.908;2023-05-10T09:59:07;10.93;;;8.97;;
13683;SDS011;6914;53.552;9.908;2023-05-10T10:01:35;14.07;;;9.70;;
13683;SDS011;6914;53.552;9.908;2023-05-10T10:04:03;22.00;;;9.77;;
13683;SDS011;6914;53.552;9.908;2023-05-10T10:06:34;24.10;;;8.07;;
13683;SDS011;6914;53.552;9.908;2023-05-10T10:09:02;13.03;;;9.87;;
13683;SDS011;6914;53.552;9.908;2023-05-10T10:11:29;10.87;;;9.50;;
13683;SDS011;6914;53.552;9.908;2023-05-10T10:13:56;12.00;;;10.63;;
13683;SDS011;6914;53.552;9.908;2023-05-10T10:16:24;10.83;;;9.80;;
13683;SDS011;6914;53.552;9.908;2023-05-10T10:18:52;13.60;;;11.30;;
13683;SDS011;6914;53.552;9.908;2023-05-10T10:21:19;11.77;;;10.57;;
13683;SDS011;6914;53.552;9.908;2023-05-10T10:23:50;16.80;;;11.80;;
13683;SDS011;6914;53.552;9.908;2023-05-10T10:26:20;11.77;;;10.67;;
13683;SDS011;6914;53.552;9.908;2023-05-10T10:28:49;16.10;;;12.07;;
13683;SDS011;6914;53.552;9.908;2023-05-10T10:31:26;22.67;;;12.90;;
13683;SDS011;6914;53.552;9.908;2023-05-10T10:34:01;16.80;;;12.70;;
13683;SDS011;6914;53.552;9.908;2023-05-10T10:36:45;12.47;;;10.70;;
13683;SDS011;6914;53.552;9.908;2023-05-10T10:39:20;15.27;;;11.50;;
13683;SDS011;6914;53.552;9.908;2023-05-10T10:41:55;15.80;;;13.03;;
13683;SDS011;6914;53.552;9.908;2023-05-10T10:44:33;13.40;;;12.07;;
13683;SDS011;6914;53.552;9.908;2023-05-10T10:47:21;19.00;;;12.30;;
13683;SDS011;6914;53.552;9.908;2023-05-10T10:50:04;14.67;;;13.03;;
13683;SDS011;6914;53.552;9.908;2023-05-10T10:52:33;14.07;;;12.47;;
13683;SDS011;6914;53.552;9.908;2023-05-10T10:55:02;14.43;;;13.10;;
13683;SDS011;6914;53.552;9.908;2023-05-10T10:57:32;14.30;;;12.93;;
13683;SDS011;6914;53.552;9.908;2023-05-10T11:00:17;18.33;;;12.00;;
13683;SDS011;6914;53.552;9.908;2023-05-10T11:02:50;14.40;;;12.90;;
13683;SDS011;6914;53.552;9.908;2023-05-10T11:08:09;15.13;;;12.63;;
13683;SDS011;6914;53.552;9.908;2023-05-10T11:10:49;16.40;;;14.60;;
13683;SDS011;6914;53.552;9.908;2023-05-10T11:13:27;17.50;;;13.27;;
13683;SDS011;6914;53.552;9.908;2023-05-10T11:15:55;16.70;;;14.10;;
13683;SDS011;6914;53.552;9.908;2023-05-10T11:18:25;16.30;;;14.53;;
13683;SDS011;6914;53.552;9.908;2023-05-10T11:20:56;17.13;;;13.40;;
13683;SDS011;6914;53.552;9.908;2023-05-10T11:23:28;14.67;;;13.27;;
13683;SDS011;6914;53.552;9.908;2023-05-10T11:25:56;17.47;;;13.17;;
13683;SDS011;6914;53.552;9.908;2023-05-10T11:28:24;17.50;;;12.97;;
13683;SDS011;6914;53.552;9.908;2023-05-10T11:30:53;16.33;;;13.43;;
13683;SDS011;6914;53.552;9.908;2023-05-10T11:33:20;14.23;;;12.93;;
13683;SDS011;6914;53.552;9.908;2023-05-10T11:35:48;16.37;;;14.60;;
13683;SDS011;6914;53.552;9.908;2023-05-10T11:38:16;15.60;;;13.43;;
13683;SDS011;6914;53.552;9.908;2023-05-10T11:40:44;15.73;;;13.87;;
13683;SDS011;6914;53.552;9.908;2023-05-10T11:43:11;14.80;;;13.50;;
13683;SDS011;6914;53.552;9.908;2023-05-10T11:45:39;15.93;;;14.20;;
13683;SDS011;6914;53.552;9.908;2023-05-10T11:48:07;17.10;;;14.80;;
13683;SDS011;6914;53.552;9.908;2023-05-10T11:50:34;19.83;;;15.07;;
13683;SDS011;6914;53.552;9.908;2023-05-10T11:53:02;17.10;;;14.47;;
13683;SDS011;6914;53.552;9.908;2023-05-10T11:55:30;16.47;;;14.07;;
13683;SDS011;6914;53.552;9.908;2023-05-10T11:58:00;14.80;;;13.10;;
13683;SDS011;6914;53.552;9.908;2023-05-10T12:00:28;20.73;;;12.87;;
13683;SDS011;6914;53.552;9.908;2023-05-10T12:02:56;17.23;;;13.80;;
13683;SDS011;6914;53.552;9.908;2023-05-10T12:05:24;18.40;;;13.93;;
13683;SDS011;6914;53.552;9.908;2023-05-10T12:07:51;15.30;;;13.43;;
13683;SDS011;6914;53.552;9.908;2023-05-10T12:10:25;17.87;;;14.83;;
13683;SDS011;6914;53.552;9.908;2023-05-10T12:12:52;17.90;;;14.33;;
13683;SDS011;6914;53.552;9.908;2023-05-10T12:15:20;20.00;;;13.57;;
13683;SDS011;6914;53.552;9.908;2023-05-10T12:17:48;16.40;;;13.90;;
13683;SDS011;6914;53.552;9.908;2023-05-10T12:20:17;15.73;;;13.87;;
13683;SDS011;6914;53.552;9.908;2023-05-10T12:22:50;14.93;;;13.43;;
13683;SDS011;6914;53.552;9.908;2023-05-10T12:25:18;16.00;;;14.40;;
13683;SDS011;6914;53.552;9.908;2023-05-10T12:27:49;16.63;;;14.70;;
13683;SDS011;6914;53.552;9.908;2023-05-10T12:30:21;15.13;;;13.73;;
13683;SDS011;6914;53.552;9.908;2023-05-10T12:32:48;13.17;;;11.87;;
13683;SDS011;6914;53.552;9.908;2023-05-10T12:35:15;17.40;;;14.03;;
13683;SDS011;6914;53.552;9.908;2023-05-10T12:37:45;18.50;;;16.50;;
13683;SDS011;6914;53.552;9.908;2023-05-10T12:40:13;15.70;;;14.00;;
13683;SDS011;6914;53.552;9.908;2023-05-10T12:42:40;25.57;;;14.70;;
13683;SDS011;6914;53.552;9.908;2023-05-10T12:45:08;14.57;;;12.80;;
13683;SDS011;6914;53.552;9.908;2023-05-10T12:47:35;13.97;;;12.57;;
13683;SDS011;6914;53.552;9.908;2023-05-10T12:50:03;12.97;;;11.80;;
13683;SDS011;6914;53.552;9.908;2023-05-10T12:52:31;14.07;;;12.40;;
13683;SDS011;6914;53.552;9.908;2023-05-10T12:54:58;12.00;;;11.00;;
13683;SDS011;6914;53.552;9.908;2023-05-10T12:57:26;12.50;;;11.40;;
13683;SDS011;6914;53.552;9.908;2023-05-10T12:59:53;13.03;;;11.80;;
13683;SDS011;6914;53.552;9.908;2023-05-10T13:02:22;11.63;;;10.03;;
13683;SDS011;6914;53.552;9.908;2023-05-10T13:04:50;11.20;;;10.30;;
13683;SDS011;6914;53.552;9.908;2023-05-10T13:07:18;13.20;;;11.83;;
13683;SDS011;6914;53.552;9.908;2023-05-10T13:09:47;14.43;;;11.53;;
13683;SDS011;6914;53.552;9.908;2023-05-10T13:12:14;11.57;;;10.50;;
13683;SDS011;6914;53.552;9.908;2023-05-10T13:14:41;12.07;;;10.93;;
13683;SDS011;6914;53.552;9.908;2023-05-10T13:17:08;12.70;;;11.70;;
13683;SDS011;6914;53.552;9.908;2023-05-10T13:19:37;14.67;;;11.40;;
13683;SDS011;6914;53.552;9.908;2023-05-10T13:22:03;12.63;;;11.53;;
13683;SDS011;6914;53.552;9.908;2023-05-10T13:24:30;11.70;;;10.67;;
13683;SDS011;6914;53.552;9.908;2023-05-10T13:26:57;11.77;;;10.50;;
13683;SDS011;6914;53.552;9.908;2023-05-10T13:29:24;12.27;;;11.03;;
13683;SDS011;6914;53.552;9.908;2023-05-10T13:31:51;11.70;;;10.60;;
13683;SDS011;6914;53.552;9.908;2023-05-10T13:34:18;12.13;;;10.90;;
13683;SDS011;6914;53.552;9.908;2023-05-10T13:36:50;12.33;;;11.10;;
13683;SDS011;6914;53.552;9.908;2023-05-10T13:39:18;11.50;;;10.47;;
13683;SDS011;6914;53.552;9.908;2023-05-10T13:41:48;11.67;;;10.73;;
13683;SDS011;6914;53.552;9.908;2023-05-10T13:44:15;13.33;;;10.97;;
13683;SDS011;6914;53.552;9.908;2023-05-10T13:46:42;14.93;;;11.40;;
13683;SDS011;6914;53.552;9.908;2023-05-10T13:49:10;11.30;;;10.40;;
13683;SDS011;6914;53.552;9.908;2023-05-10T13:51:38;13.50;;;12.10;;
13683;SDS011;6914;53.552;9.908;2023-05-10T13:54:06;13.80;;;12.50;;
13683;SDS011;6914;53.552;9.908;2023-05-10T13:56:33;13.07;;;11.90;;
13683;SDS011;6914;53.552;9.908;2023-05-10T13:59:00;13.53;;;12.33;;
13683;SDS011;6914;53.552;9.908;2023-05-10T14:01:27;12.70;;;11.60;;
13683;SDS011;6914;53.552;9.908;2023-05-10T14:03:54;19.50;;;12.50;;
13683;SDS011;6914;53.552;9.908;2023-05-10T14:06:23;13.57;;;12.37;;
13683;SDS011;6914;53.552;9.908;2023-05-10T14:08:50;12.67;;;11.37;;
13683;SDS011;6914;53.552;9.908;2023-05-10T14:11:28;12.30;;;11.10;;
13683;SDS011;6914;53.552;9.908;2023-05-10T14:13:55;12.97;;;11.67;;
13683;SDS011;6914;53.552;9.908;2023-05-10T14:16:22;12.47;;;11.43;;
13683;SDS011;6914;53.552;9.908;2023-05-10T14:18:49;12.23;;;10.47;;
13683;SDS011;6914;53.552;9.908;2023-05-10T14:21:16;10.60;;;9.60;;
13683;SDS011;6914;53.552;9.908;2023-05-10T14:23:44;10.03;;;9.10;;
13683;SDS011;6914;53.552;9.908;2023-05-10T14:26:22;11.80;;;10.70;;
13683;SDS011;6914;53.552;9.908;2023-05-10T14:28:50;13.57;;;9.60;;
13683;SDS011;6914;53.552;9.908;2023-05-10T14:31:17;11.93;;;10.97;;
13683;SDS011;6914;53.552;9.908;2023-05-10T14:33:48;10.03;;;9.23;;
13683;SDS011;6914;53.552;9.908;2023-05-10T14:36:17;10.80;;;9.90;;
13683;SDS011;6914;53.552;9.908;2023-05-10T14:38:44;11.90;;;10.77;;
13683;SDS011;6914;53.552;9.908;2023-05-10T14:41:11;11.27;;;10.20;;
13683;SDS011;6914;53.552;9.908;2023-05-10T14:43:40;10.33;;;9.53;;
13683;SDS011;6914;53.552;9.908;2023-05-10T14:46:09;14.07;;;10.00;;
13683;SDS011;6914;53.552;9.908;2023-05-10T14:48:36;11.93;;;9.83;;
13683;SDS011;6914;53.552;9.908;2023-05-10T14:51:03;11.80;;;10.60;;
13683;SDS011;6914;53.552;9.908;2023-05-10T14:53:31;10.83;;;9.93;;
13683;SDS011;6914;53.552;9.908;2023-05-10T14:55:57;12.80;;;9.73;;
13683;SDS011;6914;53.552;9.908;2023-05-10T14:58:26;9.83;;;9.13;;
13683;SDS011;6914;53.552;9.908;2023-05-10T15:00:53;11.93;;;10.83;;
13683;SDS011;6914;53.552;9.908;2023-05-10T15:03:23;10.73;;;9.63;;
13683;SDS011;6914;53.552;9.908;2023-05-10T15:05:50;22.40;;;9.90;;
13683;SDS011;6914;53.552;9.908;2023-05-10T15:08:18;13.10;;;9.23;;